Terminal Aerodrome Forecast
Issued by NWS Lake Charles, LA

Home | Current Version | Previous Version | Text Only | Print | Product List | Glossary On
Versions: 1 2 3 4 5 6 7 8 9 10 11 12 13 14
000
FTUS44 KLCH 261700
TAFAEX
TAF
KAEX 261727Z 2618/2718 13010KT P6SM BKN040
     FM262000 13009KT 5SM BR VCSH BKN020
     FM270600 13009KT 4SM BR VCSH OVC007
      TEMPO 2709/2712 2SM -SHRA BR OVC005
     FM271200 13008KT 3SM -SHRA BR OVC008=

USA.gov is the U.S. government's official web portal to all federal, state and local government web resources and services.